Terminal Aerodrome Forecast
Issued by NWS

Home | Current Version | Previous Version | Text Only | Print | Product List | Glossary On
Versions: 1 2 3 4 5 6 7 8 9 10 11 12 13 14 15 16 17 18 19 20 21 22 23 24 25 26 27
000
FTUS41 KOKX 050841 AAA
TAFTEB
TAF AMD
KTEB 050841Z 0509/0606 VRB04KT P6SM FEW250
     FM051200 27006KT P6SM FEW080 BKN120
     FM051400 32007KT P6SM SCT050 BKN100
     FM051700 VRB05KT P6SM SCT050 SCT150 BKN250=

USA.gov is the U.S. government's official web portal to all federal, state and local government web resources and services.